sensor_id;sensor_type;location;lat;lon;timestamp;pressure;altitude;pressure_sealevel;temperature;humidity
64340;BME280;63709;53.258;-8.814;2023-05-18T00:00:10;102878.00;;;14.77;100.00
64340;BME280;63709;53.258;-8.814;2023-05-18T00:02:39;102882.53;;;14.77;100.00
64340;BME280;63709;53.258;-8.814;2023-05-18T00:05:05;102879.00;;;14.91;100.00
64340;BME280;63709;53.258;-8.814;2023-05-18T00:07:31;102876.97;;;14.80;100.00
64340;BME280;63709;53.258;-8.814;2023-05-18T00:09:59;102865.13;;;14.83;100.00
64340;BME280;63709;53.258;-8.814;2023-05-18T00:12:26;102861.75;;;14.65;100.00
64340;BME280;63709;53.258;-8.814;2023-05-18T00:14:52;102846.66;;;14.62;100.00
64340;BME280;63709;53.258;-8.814;2023-05-18T00:17:17;102852.03;;;14.62;100.00
64340;BME280;63709;53.258;-8.814;2023-05-18T00:19:45;102858.00;;;14.67;100.00
64340;BME280;63709;53.258;-8.814;2023-05-18T00:22:11;102854.38;;;14.68;100.00
64340;BME280;63709;53.258;-8.814;2023-05-18T00:24:44;102862.22;;;14.71;100.00
64340;BME280;63709;53.258;-8.814;2023-05-18T00:27:11;102852.84;;;14.79;100.00
64340;BME280;63709;53.258;-8.814;2023-05-18T00:29:37;102848.81;;;14.86;100.00
64340;BME280;63709;53.258;-8.814;2023-05-18T00:32:02;102827.66;;;14.65;100.00
64340;BME280;63709;53.258;-8.814;2023-05-18T00:34:30;102852.84;;;14.79;100.00
64340;BME280;63709;53.258;-8.814;2023-05-18T00:36:56;102853.81;;;14.77;100.00
64340;BME280;63709;53.258;-8.814;2023-05-18T00:39:22;102846.88;;;14.73;100.00
64340;BME280;63709;53.258;-8.814;2023-05-18T00:41:47;102851.69;;;14.83;100.00
64340;BME280;63709;53.258;-8.814;2023-05-18T00:44:13;102848.06;;;14.84;100.00
64340;BME280;63709;53.258;-8.814;2023-05-18T00:46:41;102847.28;;;14.82;100.00
64340;BME280;63709;53.258;-8.814;2023-05-18T00:49:10;102846.06;;;14.87;100.00
64340;BME280;63709;53.258;-8.814;2023-05-18T00:51:40;102849.50;;;14.89;100.00
64340;BME280;63709;53.258;-8.814;2023-05-18T00:54:06;102843.38;;;14.87;100.00
64340;BME280;63709;53.258;-8.814;2023-05-18T00:56:32;102840.50;;;15.05;100.00
64340;BME280;63709;53.258;-8.814;2023-05-18T00:59:04;102820.41;;;14.82;100.00
64340;BME280;63709;53.258;-8.814;2023-05-18T01:01:31;102842.22;;;14.91;100.00
64340;BME280;63709;53.258;-8.814;2023-05-18T01:04:00;102826.75;;;14.81;100.00
64340;BME280;63709;53.258;-8.814;2023-05-18T01:06:27;102820.72;;;14.91;100.00
64340;BME280;63709;53.258;-8.814;2023-05-18T01:08:58;102844.63;;;14.96;100.00
64340;BME280;63709;53.258;-8.814;2023-05-18T01:17:02;102845.41;;;15.12;100.00
64340;BME280;63709;53.258;-8.814;2023-05-18T01:19:59;102838.97;;;15.15;100.00
64340;BME280;63709;53.258;-8.814;2023-05-18T01:22:54;102838.88;;;15.16;100.00
64340;BME280;63709;53.258;-8.814;2023-05-18T01:25:46;102835.63;;;15.25;100.00
64340;BME280;63709;53.258;-8.814;2023-05-18T01:28:17;102828.09;;;15.16;100.00
64340;BME280;63709;53.258;-8.814;2023-05-18T01:30:45;102834.84;;;15.09;100.00
64340;BME280;63709;53.258;-8.814;2023-05-18T01:33:11;102833.78;;;15.12;100.00
64340;BME280;63709;53.258;-8.814;2023-05-18T01:35:37;102830.41;;;15.08;100.00
64340;BME280;63709;53.258;-8.814;2023-05-18T01:38:06;102831.75;;;15.01;100.00
64340;BME280;63709;53.258;-8.814;2023-05-18T01:40:55;102813.97;;;14.84;100.00
64340;BME280;63709;53.258;-8.814;2023-05-18T01:43:31;102824.63;;;14.86;100.00
64340;BME280;63709;53.258;-8.814;2023-05-18T01:46:04;102812.69;;;14.75;100.00
64340;BME280;63709;53.258;-8.814;2023-05-18T01:48:36;102816.28;;;14.76;100.00
64340;BME280;63709;53.258;-8.814;2023-05-18T01:51:04;102825.19;;;14.76;100.00
64340;BME280;63709;53.258;-8.814;2023-05-18T01:53:35;102803.34;;;14.52;100.00
64340;BME280;63709;53.258;-8.814;2023-05-18T01:56:06;102809.38;;;14.56;100.00
64340;BME280;63709;53.258;-8.814;2023-05-18T01:58:34;102810.97;;;14.44;100.00
64340;BME280;63709;53.258;-8.814;2023-05-18T02:00:59;102811.09;;;14.57;100.00
64340;BME280;63709;53.258;-8.814;2023-05-18T02:03:25;102811.66;;;14.48;100.00
64340;BME280;63709;53.258;-8.814;2023-05-18T02:05:50;102804.31;;;14.36;100.00
64340;BME280;63709;53.258;-8.814;2023-05-18T02:08:17;102803.88;;;14.27;100.00
64340;BME280;63709;53.258;-8.814;2023-05-18T02:10:43;102809.63;;;14.21;100.00
64340;BME280;63709;53.258;-8.814;2023-05-18T02:13:10;102800.09;;;14.16;100.00
64340;BME280;63709;53.258;-8.814;2023-05-18T02:15:35;102802.09;;;14.12;100.00
64340;BME280;63709;53.258;-8.814;2023-05-18T02:18:01;102811.69;;;14.16;100.00
64340;BME280;63709;53.258;-8.814;2023-05-18T02:20:27;102815.97;;;14.20;100.00
64340;BME280;63709;53.258;-8.814;2023-05-18T02:22:57;102806.50;;;14.29;100.00
64340;BME280;63709;53.258;-8.814;2023-05-18T02:25:22;102780.88;;;14.08;100.00
64340;BME280;63709;53.258;-8.814;2023-05-18T02:27:48;102809.34;;;14.26;100.00
64340;BME280;63709;53.258;-8.814;2023-05-18T02:30:14;102810.22;;;14.26;100.00
64340;BME280;63709;53.258;-8.814;2023-05-18T02:32:40;102813.88;;;14.25;100.00
64340;BME280;63709;53.258;-8.814;2023-05-18T02:35:07;102792.25;;;14.13;100.00
64340;BME280;63709;53.258;-8.814;2023-05-18T02:37:33;102784.66;;;14.19;100.00
64340;BME280;63709;53.258;-8.814;2023-05-18T02:40:08;102814.22;;;14.19;100.00
64340;BME280;63709;53.258;-8.814;2023-05-18T02:42:34;102780.19;;;14.04;100.00
64340;BME280;63709;53.258;-8.814;2023-05-18T02:44:59;102808.84;;;14.19;100.00
64340;BME280;63709;53.258;-8.814;2023-05-18T02:47:25;102786.97;;;13.95;100.00
64340;BME280;63709;53.258;-8.814;2023-05-18T02:49:50;102786.88;;;13.97;100.00
64340;BME280;63709;53.258;-8.814;2023-05-18T02:52:17;102815.44;;;14.14;100.00
64340;BME280;63709;53.258;-8.814;2023-05-18T02:54:42;102812.59;;;14.01;100.00
64340;BME280;63709;53.258;-8.814;2023-05-18T02:57:07;102788.13;;;13.91;100.00
64340;BME280;63709;53.258;-8.814;2023-05-18T02:59:34;102805.84;;;13.94;100.00
64340;BME280;63709;53.258;-8.814;2023-05-18T03:02:03;102809.59;;;13.91;100.00
64340;BME280;63709;53.258;-8.814;2023-05-18T03:04:30;102804.28;;;13.90;100.00
64340;BME280;63709;53.258;-8.814;2023-05-18T03:06:57;102807.25;;;13.85;100.00
64340;BME280;63709;53.258;-8.814;2023-05-18T03:09:27;102796.50;;;13.85;100.00
64340;BME280;63709;53.258;-8.814;2023-05-18T03:11:52;102798.06;;;13.89;100.00
64340;BME280;63709;53.258;-8.814;2023-05-18T03:14:18;102782.31;;;13.67;100.00
64340;BME280;63709;53.258;-8.814;2023-05-18T03:16:44;102767.66;;;13.57;100.00
64340;BME280;63709;53.258;-8.814;2023-05-18T03:19:10;102787.84;;;13.64;100.00
64340;BME280;63709;53.258;-8.814;2023-05-18T03:21:38;102766.38;;;13.48;100.00
64340;BME280;63709;53.258;-8.814;2023-05-18T03:24:04;102768.19;;;13.48;100.00
64340;BME280;63709;53.258;-8.814;2023-05-18T03:26:30;102780.31;;;13.55;100.00
64340;BME280;63709;53.258;-8.814;2023-05-18T03:28:58;102724.63;;;13.11;100.00
64340;BME280;63709;53.258;-8.814;2023-05-18T03:31:30;102789.22;;;13.40;100.00
64340;BME280;63709;53.258;-8.814;2023-05-18T03:33:56;102775.72;;;13.25;100.00
64340;BME280;63709;53.258;-8.814;2023-05-18T03:36:21;102778.28;;;13.27;100.00
64340;BME280;63709;53.258;-8.814;2023-05-18T03:38:46;102784.03;;;13.19;100.00
64340;BME280;63709;53.258;-8.814;2023-05-18T03:41:12;102760.25;;;13.13;100.00
64340;BME280;63709;53.258;-8.814;2023-05-18T03:43:39;102789.56;;;13.16;100.00
64340;BME280;63709;53.258;-8.814;2023-05-18T03:46:06;102773.13;;;13.06;100.00
64340;BME280;63709;53.258;-8.814;2023-05-18T03:48:32;102787.53;;;13.21;100.00
64340;BME280;63709;53.258;-8.814;2023-05-18T03:50:58;102767.34;;;13.14;100.00
64340;BME280;63709;53.258;-8.814;2023-05-18T03:53:23;102784.56;;;13.27;100.00
64340;BME280;63709;53.258;-8.814;2023-05-18T03:55:50;102773.25;;;13.21;100.00
64340;BME280;63709;53.258;-8.814;2023-05-18T03:58:22;102782.22;;;13.20;100.00
64340;BME280;63709;53.258;-8.814;2023-05-18T04:00:48;102782.16;;;13.21;100.00
64340;BME280;63709;53.258;-8.814;2023-05-18T04:03:15;102743.81;;;13.03;100.00
64340;BME280;63709;53.258;-8.814;2023-05-18T04:05:41;102763.97;;;13.11;100.00
64340;BME280;63709;53.258;-8.814;2023-05-18T04:08:10;102763.28;;;13.23;100.00
64340;BME280;63709;53.258;-8.814;2023-05-18T04:10:41;102731.53;;;12.99;100.00
64340;BME280;63709;53.258;-8.814;2023-05-18T04:13:06;102770.63;;;13.19;100.00
64340;BME280;63709;53.258;-8.814;2023-05-18T04:15:32;102776.16;;;13.16;100.00
64340;BME280;63709;53.258;-8.814;2023-05-18T04:17:58;102776.50;;;13.27;100.00
64340;BME280;63709;53.258;-8.814;2023-05-18T04:20:24;102768.63;;;13.24;100.00
64340;BME280;63709;53.258;-8.814;2023-05-18T04:22:59;102775.28;;;13.33;100.00
64340;BME280;63709;53.258;-8.814;2023-05-18T04:25:25;102781.78;;;13.29;100.00
64340;BME280;63709;53.258;-8.814;2023-05-18T04:27:53;102762.69;;;13.18;100.00
64340;BME280;63709;53.258;-8.814;2023-05-18T04:30:19;102770.81;;;13.16;100.00
64340;BME280;63709;53.258;-8.814;2023-05-18T04:32:46;102784.56;;;13.27;100.00
64340;BME280;63709;53.258;-8.814;2023-05-18T04:35:12;102776.56;;;13.26;100.00
64340;BME280;63709;53.258;-8.814;2023-05-18T04:37:38;102775.22;;;13.17;100.00
64340;BME280;63709;53.258;-8.814;2023-05-18T04:40:08;102767.78;;;13.22;100.00
64340;BME280;63709;53.258;-8.814;2023-05-18T04:42:39;102776.16;;;13.16;100.00
64340;BME280;63709;53.258;-8.814;2023-05-18T04:45:19;102751.75;;;13.05;100.00
64340;BME280;63709;53.258;-8.814;2023-05-18T04:47:46;102771.75;;;13.15;100.00
64340;BME280;63709;53.258;-8.814;2023-05-18T04:50:18;102770.03;;;13.14;100.00
64340;BME280;63709;53.258;-8.814;2023-05-18T04:52:46;102753.94;;;13.14;100.00
64340;BME280;63709;53.258;-8.814;2023-05-18T04:55:20;102769.94;;;13.16;100.00
64340;BME280;63709;53.258;-8.814;2023-05-18T04:57:52;102774.13;;;13.21;100.00
64340;BME280;63709;53.258;-8.814;2023-05-18T05:00:21;102777.13;;;13.15;100.00
64340;BME280;63709;53.258;-8.814;2023-05-18T05:02:48;102755.06;;;13.10;100.00
64340;BME280;63709;53.258;-8.814;2023-05-18T05:05:14;102778.63;;;13.21;100.00
64340;BME280;63709;53.258;-8.814;2023-05-18T05:07:40;102780.34;;;13.22;100.00
64340;BME280;63709;53.258;-8.814;2023-05-18T05:10:07;102780.13;;;13.26;100.00
64340;BME280;63709;53.258;-8.814;2023-05-18T05:12:38;102780.03;;;13.28;100.00
64340;BME280;63709;53.258;-8.814;2023-05-18T05:15:03;102763.56;;;13.18;100.00
64340;BME280;63709;53.258;-8.814;2023-05-18T05:17:29;102789.72;;;13.30;100.00
64340;BME280;63709;53.258;-8.814;2023-05-18T05:19:56;102780.75;;;13.31;100.00
64340;BME280;63709;53.258;-8.814;2023-05-18T05:22:28;102788.22;;;13.42;100.00
64340;BME280;63709;53.258;-8.814;2023-05-18T05:24:54;102789.22;;;13.40;100.00
64340;BME280;63709;53.258;-8.814;2023-05-18T05:27:20;102770.72;;;13.35;100.00
64340;BME280;63709;53.258;-8.814;2023-05-18T05:29:47;102763.00;;;13.29;100.00
64340;BME280;63709;53.258;-8.814;2023-05-18T05:32:12;102784.41;;;13.46;100.00
64340;BME280;63709;53.258;-8.814;2023-05-18T05:34:39;102785.94;;;13.50;100.00
64340;BME280;63709;53.258;-8.814;2023-05-18T05:37:05;102787.94;;;13.47;100.00
64340;BME280;63709;53.258;-8.814;2023-05-18T05:39:31;102786.66;;;13.54;100.00
64340;BME280;63709;53.258;-8.814;2023-05-18T05:41:57;102785.53;;;13.58;100.00
64340;BME280;63709;53.258;-8.814;2023-05-18T05:44:23;102783.78;;;13.57;100.00
64340;BME280;63709;53.258;-8.814;2023-05-18T05:46:55;102777.75;;;13.53;100.00
64340;BME280;63709;53.258;-8.814;2023-05-18T05:49:20;102773.47;;;13.49;100.00
64340;BME280;63709;53.258;-8.814;2023-05-18T05:51:46;102771.41;;;13.54;100.00
64340;BME280;63709;53.258;-8.814;2023-05-18T05:54:14;102795.66;;;13.69;100.00
64340;BME280;63709;53.258;-8.814;2023-05-18T05:56:39;102780.00;;;13.61;100.00
64340;BME280;63709;53.258;-8.814;2023-05-18T05:59:06;102788.31;;;13.72;100.00
64340;BME280;63709;53.258;-8.814;2023-05-18T06:01:32;102782.94;;;13.72;100.00
64340;BME280;63709;53.258;-8.814;2023-05-18T06:04:00;102786.53;;;13.71;100.00
64340;BME280;63709;53.258;-8.814;2023-05-18T06:06:26;102786.47;;;13.73;100.00
64340;BME280;63709;53.258;-8.814;2023-05-18T06:08:52;102806.28;;;13.86;100.00
64340;BME280;63709;53.258;-8.814;2023-05-18T06:11:18;102792.53;;;13.92;100.00
64340;BME280;63709;53.258;-8.814;2023-05-18T06:13:45;102801.84;;;14.01;100.00
64340;BME280;63709;53.258;-8.814;2023-05-18T06:16:10;102779.19;;;13.91;100.00
64340;BME280;63709;53.258;-8.814;2023-05-18T06:18:38;102795.88;;;14.12;100.00
64340;BME280;63709;53.258;-8.814;2023-05-18T06:21:04;102804.50;;;14.33;100.00
64340;BME280;63709;53.258;-8.814;2023-05-18T06:23:31;102791.06;;;14.33;100.00
64340;BME280;63709;53.258;-8.814;2023-05-18T06:25:57;102794.16;;;14.41;100.00
64340;BME280;63709;53.258;-8.814;2023-05-18T06:28:23;102813.03;;;14.55;100.00
64340;BME280;63709;53.258;-8.814;2023-05-18T06:30:49;102815.16;;;14.64;100.00
64340;BME280;63709;53.258;-8.814;2023-05-18T06:33:16;102817.31;;;14.73;100.00
64340;BME280;63709;53.258;-8.814;2023-05-18T06:35:41;102814.72;;;14.86;100.00
64340;BME280;63709;53.258;-8.814;2023-05-18T06:38:08;102818.88;;;14.92;100.00
64340;BME280;63709;53.258;-8.814;2023-05-18T06:40:34;102824.09;;;15.09;100.00
64340;BME280;63709;53.258;-8.814;2023-05-18T06:43:00;102810.06;;;15.18;100.00
64340;BME280;63709;53.258;-8.814;2023-05-18T06:45:25;102812.44;;;15.37;100.00
64340;BME280;63709;53.258;-8.814;2023-05-18T06:47:52;102801.50;;;15.40;100.00
64340;BME280;63709;53.258;-8.814;2023-05-18T06:50:17;102808.03;;;15.51;100.00
64340;BME280;63709;53.258;-8.814;2023-05-18T06:52:43;102818.97;;;15.62;100.00
64340;BME280;63709;53.258;-8.814;2023-05-18T06:55:10;102819.91;;;15.75;100.00
64340;BME280;63709;53.258;-8.814;2023-05-18T06:57:36;102801.69;;;15.66;100.00
64340;BME280;63709;53.258;-8.814;2023-05-18T07:00:02;102785.03;;;15.59;100.00
64340;BME280;63709;53.258;-8.814;2023-05-18T07:02:31;102796.84;;;15.57;100.00
64340;BME280;63709;53.258;-8.814;2023-05-18T07:04:57;102825.41;;;15.73;100.00
64340;BME280;63709;53.258;-8.814;2023-05-18T07:07:24;102821.19;;;15.69;100.00
64340;BME280;63709;53.258;-8.814;2023-05-18T07:09:49;102825.22;;;15.62;100.00
64340;BME280;63709;53.258;-8.814;2023-05-18T07:12:15;102817.94;;;15.50;100.00
64340;BME280;63709;53.258;-8.814;2023-05-18T07:14:41;102815.50;;;15.60;100.00
64340;BME280;63709;53.258;-8.814;2023-05-18T07:17:06;102813.13;;;15.55;100.00
64340;BME280;63709;53.258;-8.814;2023-05-18T07:19:32;102815.81;;;15.55;100.00
64340;BME280;63709;53.258;-8.814;2023-05-18T07:22:00;102816.47;;;15.59;100.00
64340;BME280;63709;53.258;-8.814;2023-05-18T07:24:26;102799.28;;;15.61;100.00
64340;BME280;63709;53.258;-8.814;2023-05-18T07:26:52;102810.44;;;15.69;100.00
64340;BME280;63709;53.258;-8.814;2023-05-18T07:29:18;102812.66;;;15.90;100.00
64340;BME280;63709;53.258;-8.814;2023-05-18T07:31:44;102813.28;;;16.08;100.00
64340;BME280;63709;53.258;-8.814;2023-05-18T07:34:10;102813.56;;;16.17;100.00
64340;BME280;63709;53.258;-8.814;2023-05-18T07:36:35;102811.53;;;16.34;100.00
64340;BME280;63709;53.258;-8.814;2023-05-18T07:39:01;102794.63;;;16.32;100.00
64340;BME280;63709;53.258;-8.814;2023-05-18T07:41:28;102815.56;;;16.54;100.00
64340;BME280;63709;53.258;-8.814;2023-05-18T07:43:55;102812.47;;;16.60;100.00
64340;BME280;63709;53.258;-8.814;2023-05-18T07:46:21;102817.81;;;16.74;100.00
64340;BME280;63709;53.258;-8.814;2023-05-18T07:48:47;102806.59;;;16.93;100.00
64340;BME280;63709;53.258;-8.814;2023-05-18T07:51:13;102809.31;;;17.06;100.00
64340;BME280;63709;53.258;-8.814;2023-05-18T07:53:38;102808.66;;;17.15;100.00
64340;BME280;63709;53.258;-8.814;2023-05-18T07:56:06;102813.50;;;17.23;100.00
64340;BME280;63709;53.258;-8.814;2023-05-18T07:58:34;102813.06;;;17.29;100.00
64340;BME280;63709;53.258;-8.814;2023-05-18T08:01:00;102822.47;;;17.36;100.00
64340;BME280;63709;53.258;-8.814;2023-05-18T08:03:26;102820.50;;;17.51;100.00
64340;BME280;63709;53.258;-8.814;2023-05-18T08:05:53;102818.94;;;17.59;100.00
64340;BME280;63709;53.258;-8.814;2023-05-18T08:08:19;102819.47;;;17.64;100.00
64340;BME280;63709;53.258;-8.814;2023-05-18T08:10:44;102815.47;;;17.70;100.00
64340;BME280;63709;53.258;-8.814;2023-05-18T08:13:13;102809.84;;;17.73;100.00
64340;BME280;63709;53.258;-8.814;2023-05-18T08:15:39;102812.34;;;17.76;100.00
64340;BME280;63709;53.258;-8.814;2023-05-18T08:18:08;102831.97;;;17.91;100.00
64340;BME280;63709;53.258;-8.814;2023-05-18T08:20:34;102827.19;;;17.95;100.00
64340;BME280;63709;53.258;-8.814;2023-05-18T08:23:01;102833.13;;;18.00;100.00
64340;BME280;63709;53.258;-8.814;2023-05-18T08:25:27;102830.34;;;18.12;100.00
64340;BME280;63709;53.258;-8.814;2023-05-18T08:27:53;102834.03;;;18.11;100.00
64340;BME280;63709;53.258;-8.814;2023-05-18T08:30:18;102817.47;;;18.16;100.00
64340;BME280;63709;53.258;-8.814;2023-05-18T08:32:48;102827.69;;;18.24;100.00
64340;BME280;63709;53.258;-8.814;2023-05-18T08:35:14;102823.72;;;18.41;100.00
64340;BME280;63709;53.258;-8.814;2023-05-18T08:37:39;102823.41;;;18.56;100.00
64340;BME280;63709;53.258;-8.814;2023-05-18T08:40:05;102817.78;;;18.59;100.00
64340;BME280;63709;53.258;-8.814;2023-05-18T08:42:47;102815.00;;;18.72;100.00
64340;BME280;63709;53.258;-8.814;2023-05-18T08:45:22;102812.41;;;18.71;100.00
64340;BME280;63709;53.258;-8.814;2023-05-18T08:47:54;102808.97;;;18.80;100.00
64340;BME280;63709;53.258;-8.814;2023-05-18T08:50:21;102808.41;;;18.76;100.00
64340;BME280;63709;53.258;-8.814;2023-05-18T08:52:47;102800.88;;;18.80;100.00
64340;BME280;63709;53.258;-8.814;2023-05-18T08:55:18;102819.34;;;18.86;100.00
64340;BME280;63709;53.258;-8.814;2023-05-18T08:57:49;102816.63;;;18.75;100.00
64340;BME280;63709;53.258;-8.814;2023-05-18T09:00:20;102817.47;;;18.75;100.00
64340;BME280;63709;53.258;-8.814;2023-05-18T09:02:47;102817.63;;;18.85;100.00
64340;BME280;63709;53.258;-8.814;2023-05-18T09:05:14;102811.97;;;18.77;100.00
64340;BME280;63709;53.258;-8.814;2023-05-18T09:07:41;102821.31;;;18.73;100.00
64340;BME280;63709;53.258;-8.814;2023-05-18T09:10:11;102821.50;;;18.70;100.00
64340;BME280;63709;53.258;-8.814;2023-05-18T09:12:38;102824.19;;;18.70;100.00
64340;BME280;63709;53.258;-8.814;2023-05-18T09:15:08;102818.47;;;18.74;100.00
64340;BME280;63709;53.258;-8.814;2023-05-18T09:17:35;102823.19;;;18.59;100.00
64340;BME280;63709;53.258;-8.814;2023-05-18T09:20:01;102814.34;;;18.69;100.00
64340;BME280;63709;53.258;-8.814;2023-05-18T09:22:30;102823.75;;;18.76;100.00
64340;BME280;63709;53.258;-8.814;2023-05-18T09:24:56;102804.59;;;18.55;100.00
64340;BME280;63709;53.258;-8.814;2023-05-18T09:27:22;102818.47;;;18.74;100.00
64340;BME280;63709;53.258;-8.814;2023-05-18T09:29:56;102814.72;;;18.64;100.00
64340;BME280;63709;53.258;-8.814;2023-05-18T09:32:24;102820.63;;;18.69;100.00
64340;BME280;63709;53.258;-8.814;2023-05-18T09:34:50;102812.19;;;18.74;100.00
64340;BME280;63709;53.258;-8.814;2023-05-18T09:37:21;102802.56;;;18.70;100.00
64340;BME280;63709;53.258;-8.814;2023-05-18T09:39:58;102807.88;;;18.71;100.00
64340;BME280;63709;53.258;-8.814;2023-05-18T09:42:43;102802.25;;;18.85;100.00
64340;BME280;63709;53.258;-8.814;2023-05-18T09:45:20;102807.03;;;18.82;100.00
64340;BME280;63709;53.258;-8.814;2023-05-18T09:47:51;102808.91;;;18.93;100.00
64340;BME280;63709;53.258;-8.814;2023-05-18T09:50:22;102808.91;;;18.93;100.00
64340;BME280;63709;53.258;-8.814;2023-05-18T09:52:49;102813.72;;;19.12;100.00
64340;BME280;63709;53.258;-8.814;2023-05-18T09:55:16;102796.84;;;18.97;100.00
64340;BME280;63709;53.258;-8.814;2023-05-18T09:57:44;102804.88;;;19.21;100.00
64340;BME280;63709;53.258;-8.814;2023-05-18T10:00:11;102793.06;;;19.10;100.00
64340;BME280;63709;53.258;-8.814;2023-05-18T10:02:39;102807.59;;;19.21;100.00
64340;BME280;63709;53.258;-8.814;2023-05-18T10:05:17;102814.72;;;19.10;100.00
64340;BME280;63709;53.258;-8.814;2023-05-18T10:07:44;102813.47;;;19.15;100.00
64340;BME280;63709;53.258;-8.814;2023-05-18T10:10:11;102793.06;;;19.10;100.00
64340;BME280;63709;53.258;-8.814;2023-05-18T10:12:38;102798.94;;;19.04;100.00
64340;BME280;63709;53.258;-8.814;2023-05-18T10:15:08;102813.59;;;19.13;100.00
64340;BME280;63709;53.258;-8.814;2023-05-18T10:17:36;102807.81;;;19.18;100.00
64340;BME280;63709;53.258;-8.814;2023-05-18T10:20:07;102800.66;;;19.05;100.00
64340;BME280;63709;53.258;-8.814;2023-05-18T10:22:34;102802.66;;;19.15;100.00
64340;BME280;63709;53.258;-8.814;2023-05-18T10:25:03;102815.09;;;19.28;100.00
64340;BME280;63709;53.258;-8.814;2023-05-18T10:27:33;102812.13;;;19.31;100.00
64340;BME280;63709;53.258;-8.814;2023-05-18T10:30:00;102814.81;;;19.43;100.00
64340;BME280;63709;53.258;-8.814;2023-05-18T10:32:29;102813.94;;;19.53;100.00
64340;BME280;63709;53.258;-8.814;2023-05-18T10:34:56;102807.59;;;19.66;100.00
64340;BME280;63709;53.258;-8.814;2023-05-18T10:37:22;102814.19;;;19.84;100.00
64340;BME280;63709;53.258;-8.814;2023-05-18T10:39:50;102807.97;;;20.04;100.00
64340;BME280;63709;53.258;-8.814;2023-05-18T10:42:17;102808.94;;;20.15;100.00
64340;BME280;63709;53.258;-8.814;2023-05-18T10:44:44;102815.50;;;20.33;100.00
64340;BME280;63709;53.258;-8.814;2023-05-18T10:47:13;102814.00;;;20.40;100.00
64340;BME280;63709;53.258;-8.814;2023-05-18T10:49:41;102815.97;;;20.38;100.00
64340;BME280;63709;53.258;-8.814;2023-05-18T10:52:08;102818.06;;;20.35;100.00
64340;BME280;63709;53.258;-8.814;2023-05-18T10:54:35;102805.66;;;20.32;100.00
64340;BME280;63709;53.258;-8.814;2023-05-18T10:57:01;102817.88;;;20.26;100.00
64340;BME280;63709;53.258;-8.814;2023-05-18T10:59:27;102809.81;;;20.36;100.00
64340;BME280;63709;53.258;-8.814;2023-05-18T11:01:56;102808.81;;;20.37;100.00
64340;BME280;63709;53.258;-8.814;2023-05-18T11:04:25;102819.94;;;20.34;100.00
64340;BME280;63709;53.258;-8.814;2023-05-18T11:06:57;102816.97;;;20.37;100.00
64340;BME280;63709;53.258;-8.814;2023-05-18T11:09:24;102818.22;;;20.33;100.00
64340;BME280;63709;53.258;-8.814;2023-05-18T11:11:58;102818.00;;;20.25;100.00
64340;BME280;63709;53.258;-8.814;2023-05-18T11:14:30;102816.00;;;19.95;100.00
64340;BME280;63709;53.258;-8.814;2023-05-18T11:17:23;102825.66;;;19.88;100.00
64340;BME280;63709;53.258;-8.814;2023-05-18T11:27:51;102823.56;;;19.69;100.00
64340;BME280;63709;53.258;-8.814;2023-05-18T11:35:56;102812.47;;;19.61;100.00
64340;BME280;63709;53.258;-8.814;2023-05-18T11:38:47;102832.94;;;19.65;100.00
64340;BME280;63709;53.258;-8.814;2023-05-18T11:44:20;102826.00;;;19.61;100.00
64340;BME280;63709;53.258;-8.814;2023-05-18T11:46:58;102823.22;;;19.51;100.00
64340;BME280;63709;53.258;-8.814;2023-05-18T11:49:28;102830.09;;;19.44;100.00
64340;BME280;63709;53.258;-8.814;2023-05-18T11:54:42;102831.69;;;19.46;100.00
64340;BME280;63709;53.258;-8.814;2023-05-18T11:57:09;102833.44;;;19.36;100.00
64340;BME280;63709;53.258;-8.814;2023-05-18T11:59:53;102817.66;;;19.41;100.00
64340;BME280;63709;53.258;-8.814;2023-05-18T12:02:23;102831.97;;;19.43;100.00
64340;BME280;63709;53.258;-8.814;2023-05-18T12:04:54;102832.69;;;19.45;100.00
64340;BME280;63709;53.258;-8.814;2023-05-18T12:07:21;102823.69;;;19.56;100.00
64340;BME280;63709;53.258;-8.814;2023-05-18T12:09:48;102827.16;;;19.47;100.00
64340;BME280;63709;53.258;-8.814;2023-05-18T12:12:23;102817.91;;;19.38;100.00
64340;BME280;63709;53.258;-8.814;2023-05-18T12:14:57;102828.97;;;19.57;100.00
64340;BME280;63709;53.258;-8.814;2023-05-18T12:17:37;102809.28;;;19.44;100.00
64340;BME280;63709;53.258;-8.814;2023-05-18T12:20:11;102828.25;;;19.44;100.00
64340;BME280;63709;53.258;-8.814;2023-05-18T12:22:41;102821.75;;;19.47;100.00
64340;BME280;63709;53.258;-8.814;2023-05-18T12:25:07;102811.25;;;19.42;100.00
64340;BME280;63709;53.258;-8.814;2023-05-18T12:27:40;102820.38;;;19.41;100.00
64340;BME280;63709;53.258;-8.814;2023-05-18T12:30:20;102832.69;;;19.23;100.00
64340;BME280;63709;53.258;-8.814;2023-05-18T12:32:56;102823.31;;;19.16;100.00
64340;BME280;63709;53.258;-8.814;2023-05-18T12:35:25;102815.31;;;19.03;100.00
64340;BME280;63709;53.258;-8.814;2023-05-18T12:37:53;102833.75;;;19.09;100.00
64340;BME280;63709;53.258;-8.814;2023-05-18T12:40:28;102836.38;;;19.22;100.00
64340;BME280;63709;53.258;-8.814;2023-05-18T12:42:59;102826.75;;;18.95;100.00
64340;BME280;63709;53.258;-8.814;2023-05-18T12:45:30;102828.97;;;19.01;100.00
64340;BME280;63709;53.258;-8.814;2023-05-18T12:48:03;102840.38;;;18.82;100.00
64340;BME280;63709;53.258;-8.814;2023-05-18T12:50:31;102830.41;;;18.83;100.00
64340;BME280;63709;53.258;-8.814;2023-05-18T12:52:56;102835.94;;;18.81;100.00
64340;BME280;63709;53.258;-8.814;2023-05-18T12:55:24;102831.13;;;18.74;100.00
64340;BME280;63709;53.258;-8.814;2023-05-18T12:58:18;102843.38;;;18.67;100.00
64340;BME280;63709;53.258;-8.814;2023-05-18T13:00:46;102840.13;;;18.50;100.00